Earls Colne, United Kingdom
Current Conditions -  °F | °C
As of 8:50 PM on Tuesday 21 Oct 2014 (Local Time) from EGUW Reporting Station
Clear Clear  
Wind Chill: 36°   Ceiling: Unl
Heat Index: 45°   Visibility: 6mi
Dew Point: 36°   Wind: 24mph
Humidity: 71%   Direction: 290°WNW
Pressure: 29.91"   Gusts: NA
Location:  51.93°N, 0.7°E
Report Text: EGUW 211950Z 29021KT CAVOK 07/02 Q1013 BLU NOSIG
Loading
Personal Weather Stations






























Interactive Weather Map New forecast layout! Learn more

10-Day Weather Forecast

Advertisements
Track Severe Weather on mobile